Terminal Aerodrome Forecast
Issued by NWS Wilmington, OH

Current Version | Previous Version | Graphics & Text | Print | Product List | Glossary On
Versions: 1 2 3 4 5 6 7 8 9 10 11 12 13 14 15 16 17 18 19 20 21 22 23 24 25 26 27
689
FTUS41 KILN 200358 AAA
TAFCVG
TAF AMD
KCVG 200358Z 2004/2106 21012KT P6SM BKN250 WS020/24045KT
     FM200800 22010KT P6SM BKN250
     FM201600 23013G22KT P6SM BKN025
     FM210000 20006KT P6SM BKN015=

USA.gov is the U.S. government's official web portal to all federal, state and local government web resources and services.